createdAt,value
2018-09-20T00:02:17.955Z,17.80
2018-09-20T00:04:47.348Z,17.60
2018-09-20T00:07:16.665Z,17.70
2018-09-20T00:09:45.956Z,17.70
2018-09-20T00:12:15.254Z,17.70
2018-09-20T00:14:44.699Z,17.70
2018-09-20T00:17:14.021Z,17.70
2018-09-20T00:19:43.315Z,17.80
2018-09-20T00:22:12.672Z,17.80
2018-09-20T00:24:41.931Z,17.70
2018-09-20T00:27:11.214Z,17.70
2018-09-20T00:29:40.545Z,17.60
2018-09-20T00:32:09.875Z,17.50
2018-09-20T00:34:39.200Z,17.50
2018-09-20T00:37:09.646Z,17.50
2018-09-20T00:39:38.915Z,17.60
2018-09-20T00:42:08.245Z,17.70
2018-09-20T00:44:37.489Z,17.60
2018-09-20T00:47:06.812Z,17.60
2018-09-20T00:49:36.125Z,17.60
2018-09-20T00:52:05.464Z,17.50
2018-09-20T00:54:34.726Z,17.50
2018-09-20T00:57:04.045Z,17.50
2018-09-20T00:59:33.315Z,17.50
2018-09-20T01:02:02.853Z,17.50
2018-09-20T01:04:32.147Z,17.50
2018-09-20T01:07:01.645Z,17.60
2018-09-20T01:09:30.953Z,17.40
2018-09-20T01:12:00.255Z,17.30
2018-09-20T01:14:29.595Z,17.30
2018-09-20T01:16:58.937Z,17.20
2018-09-20T01:19:28.296Z,17.20
2018-09-20T01:21:57.627Z,17.10
2018-09-20T01:24:26.877Z,17.10
2018-09-20T01:26:56.249Z,17.10
2018-09-20T01:29:25.542Z,17.00
2018-09-20T01:31:54.895Z,17.10
2018-09-20T01:34:24.179Z,16.90
2018-09-20T01:36:53.490Z,17.00
2018-09-20T01:39:22.792Z,17.00
2018-09-20T01:41:52.179Z,17.10
2018-09-20T01:44:21.477Z,17.10
2018-09-20T01:46:50.853Z,17.10
2018-09-20T01:49:20.140Z,17.20
2018-09-20T01:51:49.445Z,17.10
2018-09-20T01:54:18.779Z,17.10
2018-09-20T01:56:48.070Z,17.10
2018-09-20T01:59:17.398Z,17.10
2018-09-20T02:01:47.053Z,17.10
2018-09-20T02:04:16.380Z,17.10
2018-09-20T02:06:45.694Z,17.10
2018-09-20T02:09:14.990Z,17.00
2018-09-20T02:11:44.254Z,16.90
2018-09-20T02:14:13.550Z,16.80
2018-09-20T02:16:42.830Z,16.80
2018-09-20T02:19:12.118Z,16.60
2018-09-20T02:21:41.402Z,16.50
2018-09-20T02:24:10.672Z,16.60
2018-09-20T02:26:39.933Z,16.50
2018-09-20T02:29:09.265Z,16.50
2018-09-20T02:31:38.566Z,16.30
2018-09-20T02:34:07.876Z,16.10
2018-09-20T02:36:37.309Z,15.90
2018-09-20T02:39:08.446Z,16.10
2018-09-20T02:41:38.037Z,16.30
2018-09-20T02:44:07.309Z,16.40
2018-09-20T02:46:36.586Z,16.40
2018-09-20T02:49:06.070Z,16.50
2018-09-20T02:51:35.353Z,16.50
2018-09-20T02:54:04.651Z,16.50
2018-09-20T02:56:34.127Z,16.40
2018-09-20T02:59:03.448Z,16.50
2018-09-20T03:01:32.725Z,16.40
2018-09-20T03:04:02.017Z,16.30
2018-09-20T03:06:31.717Z,16.40
2018-09-20T03:09:00.944Z,16.40
2018-09-20T03:11:30.214Z,16.40
2018-09-20T03:13:59.445Z,16.30
2018-09-20T03:16:28.709Z,16.30
2018-09-20T03:18:57.957Z,16.40
2018-09-20T03:21:27.238Z,16.30
2018-09-20T03:23:56.605Z,16.40
2018-09-20T03:26:25.984Z,16.40
2018-09-20T03:28:55.250Z,16.30
2018-09-20T03:31:24.549Z,16.30
2018-09-20T03:33:53.781Z,16.30
2018-09-20T03:36:23.035Z,16.40
2018-09-20T03:38:52.333Z,16.40
2018-09-20T03:41:21.623Z,16.30
2018-09-20T03:43:50.842Z,16.30
2018-09-20T03:46:20.114Z,16.30
2018-09-20T03:48:49.345Z,16.10
2018-09-20T03:51:18.614Z,15.90
2018-09-20T03:53:47.872Z,15.90
2018-09-20T03:56:17.186Z,15.70
2018-09-20T03:58:46.427Z,15.60
2018-09-20T04:01:15.751Z,15.30
2018-09-20T04:03:45.023Z,15.40
2018-09-20T04:06:14.309Z,15.20
2018-09-20T04:08:43.555Z,15.30
2018-09-20T04:11:13.261Z,15.30
2018-09-20T04:13:42.510Z,15.30
2018-09-20T04:16:11.847Z,15.20
2018-09-20T04:18:41.155Z,15.20
2018-09-20T04:21:10.462Z,15.20
2018-09-20T04:23:39.760Z,15.30
2018-09-20T04:26:09.041Z,15.10
2018-09-20T04:28:38.360Z,14.90
2018-09-20T04:31:07.672Z,14.90
2018-09-20T04:33:36.997Z,14.90
2018-09-20T04:36:06.401Z,15.10
2018-09-20T04:38:35.697Z,15.30
2018-09-20T04:41:04.977Z,15.30
2018-09-20T04:43:34.270Z,15.40
2018-09-20T04:46:03.560Z,15.60
2018-09-20T04:48:33.177Z,15.70
2018-09-20T04:51:02.852Z,15.70
2018-09-20T04:53:32.377Z,15.70
2018-09-20T04:56:01.681Z,15.60
2018-09-20T04:58:31.339Z,15.50
2018-09-20T05:01:00.750Z,15.40
2018-09-20T05:03:30.253Z,15.40
2018-09-20T05:06:00.005Z,15.50
2018-09-20T05:08:29.324Z,15.50
2018-09-20T05:10:58.629Z,15.50
2018-09-20T05:13:27.913Z,15.40
2018-09-20T05:15:57.177Z,15.40
2018-09-20T05:18:26.467Z,15.50
2018-09-20T05:20:55.766Z,15.60
2018-09-20T05:23:25.080Z,15.80
2018-09-20T05:25:54.384Z,15.80
2018-09-20T05:28:23.684Z,15.90
2018-09-20T05:30:52.993Z,16.00
2018-09-20T05:33:22.322Z,16.00
2018-09-20T05:35:51.629Z,16.00
2018-09-20T05:38:20.882Z,15.90
2018-09-20T05:40:50.165Z,15.90
2018-09-20T05:43:19.439Z,15.80
2018-09-20T05:45:48.733Z,16.00
2018-09-20T05:48:17.997Z,16.10
2018-09-20T05:50:47.458Z,16.10
2018-09-20T05:53:16.687Z,16.30
2018-09-20T05:55:45.982Z,16.40
2018-09-20T05:58:15.238Z,16.50
2018-09-20T06:00:44.609Z,16.50
2018-09-20T06:03:13.875Z,16.50
2018-09-20T06:05:43.250Z,16.40
2018-09-20T06:08:12.513Z,16.70
2018-09-20T06:10:41.828Z,16.90
2018-09-20T06:13:11.148Z,16.90
2018-09-20T06:15:40.528Z,17.20
2018-09-20T06:18:09.822Z,17.30
2018-09-20T06:20:39.149Z,17.20
2018-09-20T06:23:08.422Z,17.50
2018-09-20T06:25:37.737Z,17.80
2018-09-20T06:28:06.981Z,18.00
2018-09-20T06:30:36.298Z,18.20
2018-09-20T06:33:05.547Z,18.20
2018-09-20T06:35:35.121Z,18.50
2018-09-20T06:38:04.389Z,18.70
2018-09-20T06:40:33.724Z,19.00
2018-09-20T06:43:03.021Z,19.20
2018-09-20T06:45:32.661Z,19.20
2018-09-20T06:48:02.430Z,19.40
2018-09-20T06:50:31.781Z,19.50
2018-09-20T06:53:01.029Z,19.50
2018-09-20T06:55:30.401Z,19.70
2018-09-20T06:57:59.688Z,20.00
2018-09-20T07:00:33.328Z,20.20
2018-09-20T07:03:04.215Z,20.00
2018-09-20T07:05:35.131Z,20.90
2018-09-20T07:08:06.044Z,21.30
2018-09-20T07:10:35.515Z,21.10
2018-09-20T07:13:04.857Z,21.40
2018-09-20T07:15:34.153Z,21.50
2018-09-20T07:18:03.462Z,22.10
2018-09-20T07:20:32.775Z,22.60
2018-09-20T07:23:02.100Z,22.90
2018-09-20T07:25:31.431Z,23.90
2018-09-20T07:28:00.756Z,24.60
2018-09-20T07:30:30.042Z,24.60
2018-09-20T07:32:59.350Z,25.40
2018-09-20T07:35:28.634Z,26.50
2018-09-20T07:37:57.924Z,26.20
2018-09-20T07:40:27.209Z,26.20
2018-09-20T07:42:56.497Z,26.90
2018-09-20T07:45:25.750Z,28.40
2018-09-20T07:47:55.096Z,28.00
2018-09-20T07:50:24.566Z,27.90
2018-09-20T07:52:53.908Z,27.60
2018-09-20T07:55:23.681Z,28.00
2018-09-20T07:57:52.918Z,28.20
2018-09-20T08:00:22.689Z,28.60
2018-09-20T08:02:52.077Z,28.90
2018-09-20T08:05:21.346Z,28.70
2018-09-20T08:07:50.658Z,28.50
2018-09-20T08:10:19.953Z,28.00
2018-09-20T08:12:49.241Z,28.70
2018-09-20T08:15:18.545Z,29.20
2018-09-20T08:17:47.853Z,30.50
2018-09-20T08:20:17.156Z,30.30
2018-09-20T08:22:46.438Z,30.10
2018-09-20T08:25:15.737Z,30.70
2018-09-20T08:29:16.498Z,30.80
2018-09-20T08:31:45.825Z,31.60
2018-09-20T08:34:15.189Z,31.50
2018-09-20T08:36:44.528Z,31.80
2018-09-20T08:39:13.861Z,32.00
2018-09-20T08:41:43.133Z,31.70
2018-09-20T08:44:12.421Z,31.60
2018-09-20T08:46:41.693Z,31.30
2018-09-20T08:49:11.090Z,32.00
2018-09-20T08:51:40.430Z,32.60
2018-09-20T08:54:09.706Z,32.70
2018-09-20T08:56:39.043Z,33.30
2018-09-20T08:59:08.315Z,35.00
2018-09-20T09:01:37.650Z,35.60
2018-09-20T09:04:07.127Z,36.00
2018-09-20T09:06:36.419Z,36.30
2018-09-20T09:09:08.293Z,34.80
2018-09-20T09:11:38.180Z,34.20
2018-09-20T09:14:07.989Z,33.90
2018-09-20T09:16:37.299Z,33.20
2018-09-20T09:19:06.665Z,33.40
2018-09-20T09:21:35.989Z,32.10
2018-09-20T09:24:05.281Z,32.30
2018-09-20T09:26:34.609Z,33.10
2018-09-20T09:29:03.882Z,33.80
2018-09-20T09:31:33.203Z,34.00
2018-09-20T09:34:02.540Z,35.10
2018-09-20T09:36:31.865Z,34.90
2018-09-20T09:39:01.151Z,35.20
2018-09-20T09:41:30.562Z,34.40
2018-09-20T09:43:59.868Z,33.30
2018-09-20T09:46:29.221Z,32.60
2018-09-20T09:48:58.480Z,32.00
2018-09-20T09:51:27.769Z,31.60
2018-09-20T09:53:57.049Z,32.90
2018-09-20T09:56:26.320Z,34.60
2018-09-20T09:58:55.573Z,34.50
2018-09-20T10:01:24.932Z,35.50
2018-09-20T10:03:54.202Z,35.20
2018-09-20T10:06:23.753Z,35.20
2018-09-20T10:08:53.000Z,35.50
2018-09-20T10:11:22.359Z,35.70
2018-09-20T10:13:51.710Z,35.70
2018-09-20T10:16:20.948Z,35.60
2018-09-20T10:18:50.225Z,36.30
2018-09-20T10:21:19.566Z,35.80
2018-09-20T10:23:49.003Z,35.80
2018-09-20T10:26:18.281Z,35.30
2018-09-20T10:28:47.639Z,34.20
2018-09-20T10:31:16.972Z,33.50
2018-09-20T10:33:46.377Z,33.60
2018-09-20T10:36:15.693Z,33.80
2018-09-20T10:38:45.010Z,34.30
2018-09-20T10:41:14.325Z,34.50
2018-09-20T10:43:43.695Z,34.40
2018-09-20T10:46:13.060Z,34.70
2018-09-20T10:48:42.384Z,34.00
2018-09-20T10:51:11.697Z,33.50
2018-09-20T10:53:41.057Z,32.70
2018-09-20T10:56:10.333Z,32.50
2018-09-20T10:58:39.648Z,32.80
2018-09-20T11:01:08.987Z,33.60
2018-09-20T11:03:38.288Z,33.90
2018-09-20T11:06:07.600Z,35.00
2018-09-20T11:08:36.909Z,34.90
2018-09-20T11:11:06.274Z,35.40
2018-09-20T11:13:35.561Z,36.60
2018-09-20T11:16:04.854Z,36.90
2018-09-20T11:18:34.197Z,37.50
2018-09-20T11:21:03.506Z,37.50
2018-09-20T11:23:32.813Z,36.10
2018-09-20T11:26:02.224Z,36.30
2018-09-20T11:28:31.475Z,35.80
2018-09-20T11:31:00.805Z,35.80
2018-09-20T11:33:30.127Z,35.50
2018-09-20T11:35:59.482Z,36.20
2018-09-20T11:38:28.830Z,36.00
2018-09-20T11:40:58.155Z,36.30
2018-09-20T11:43:27.422Z,36.40
2018-09-20T11:45:56.910Z,35.80
2018-09-20T11:48:26.210Z,35.50
2018-09-20T11:50:55.571Z,35.10
2018-09-20T11:53:24.846Z,35.20
2018-09-20T11:55:54.153Z,35.80
2018-09-20T11:58:23.419Z,35.90
2018-09-20T12:00:52.790Z,36.50
2018-09-20T12:03:22.141Z,37.00
2018-09-20T12:05:51.460Z,37.40
2018-09-20T12:08:20.757Z,37.30
2018-09-20T12:10:50.151Z,37.00
2018-09-20T12:13:19.646Z,36.30
2018-09-20T12:15:49.109Z,35.80
2018-09-20T12:18:18.428Z,34.40
2018-09-20T12:20:47.756Z,34.60
2018-09-20T12:23:17.121Z,34.80
2018-09-20T12:25:46.471Z,34.70
2018-09-20T12:28:15.717Z,35.00
2018-09-20T12:30:45.018Z,35.60
2018-09-20T12:33:14.343Z,34.40
2018-09-20T12:35:43.703Z,35.20
2018-09-20T12:38:13.039Z,34.80
2018-09-20T12:40:42.346Z,33.70
2018-09-20T12:43:11.659Z,33.50
2018-09-20T12:45:41.074Z,33.90
2018-09-20T12:48:10.415Z,33.50
2018-09-20T12:50:39.738Z,32.90
2018-09-20T12:53:09.077Z,32.70
2018-09-20T12:55:38.379Z,32.10
2018-09-20T12:58:07.834Z,32.50
2018-09-20T13:00:37.258Z,32.50
2018-09-20T13:03:06.546Z,32.80
2018-09-20T13:05:35.821Z,33.20
2018-09-20T13:08:05.133Z,33.30
2018-09-20T13:10:34.592Z,33.50
2018-09-20T13:13:03.929Z,33.90
2018-09-20T13:15:33.216Z,34.10
2018-09-20T13:18:02.522Z,33.70
2018-09-20T13:20:31.900Z,33.30
2018-09-20T13:23:01.334Z,32.20
2018-09-20T13:25:30.696Z,32.00
2018-09-20T13:27:59.963Z,31.90
2018-09-20T13:30:29.333Z,32.00
2018-09-20T13:32:58.681Z,31.80
2018-09-20T13:35:27.996Z,31.00
2018-09-20T13:37:57.291Z,31.30
2018-09-20T13:40:26.621Z,31.40
2018-09-20T13:42:55.905Z,31.40
2018-09-20T13:45:25.314Z,31.00
2018-09-20T13:47:54.597Z,30.40
2018-09-20T13:50:23.931Z,30.00
2018-09-20T13:52:53.234Z,29.70
2018-09-20T13:55:22.541Z,29.80
2018-09-20T13:57:51.829Z,29.80
2018-09-20T14:00:21.157Z,29.60
2018-09-20T14:02:50.568Z,29.60
2018-09-20T14:05:19.916Z,29.30
2018-09-20T14:07:49.222Z,29.10
2018-09-20T14:10:18.558Z,28.90
2018-09-20T14:12:47.845Z,29.00
2018-09-20T14:15:17.174Z,29.00
2018-09-20T14:17:46.491Z,28.90
2018-09-20T14:20:15.873Z,28.70
2018-09-20T14:22:45.262Z,28.60
2018-09-20T14:25:14.605Z,28.60
2018-09-20T14:27:44.125Z,28.60
2018-09-20T14:30:13.459Z,28.60
2018-09-20T14:32:42.766Z,28.40
2018-09-20T14:35:12.197Z,28.40
2018-09-20T14:37:41.497Z,28.60
2018-09-20T14:40:10.827Z,28.80
2018-09-20T14:42:40.117Z,28.80
2018-09-20T14:45:09.436Z,28.70
2018-09-20T14:47:38.754Z,28.70
2018-09-20T14:50:08.061Z,28.60
2018-09-20T14:52:37.404Z,28.70
2018-09-20T14:55:06.777Z,28.60
2018-09-20T14:57:36.075Z,28.60
2018-09-20T15:00:05.338Z,28.60
2018-09-20T15:02:34.654Z,28.60
2018-09-20T15:05:03.930Z,28.60
2018-09-20T15:07:33.257Z,28.60
2018-09-20T15:10:02.505Z,28.30
2018-09-20T15:12:31.819Z,28.40
2018-09-20T15:15:01.205Z,28.30
2018-09-20T15:17:30.520Z,28.10
2018-09-20T15:19:59.810Z,28.10
2018-09-20T15:22:29.121Z,28.20
2018-09-20T15:24:58.410Z,28.00
2018-09-20T15:27:27.694Z,27.90
2018-09-20T15:29:56.946Z,27.90
2018-09-20T15:32:26.260Z,27.90
2018-09-20T15:34:55.483Z,28.00
2018-09-20T15:37:24.809Z,27.80
2018-09-20T15:39:54.123Z,27.60
2018-09-20T15:42:23.378Z,27.80
2018-09-20T15:44:52.683Z,27.70
2018-09-20T15:47:22.061Z,27.60
2018-09-20T15:49:51.344Z,27.60
2018-09-20T15:52:20.689Z,27.50
2018-09-20T15:54:49.992Z,27.50
2018-09-20T15:57:19.317Z,27.50
2018-09-20T15:59:48.590Z,27.50
2018-09-20T16:02:17.913Z,27.50
2018-09-20T16:04:47.182Z,27.50
2018-09-20T16:07:16.512Z,27.50
2018-09-20T16:09:45.836Z,27.40
2018-09-20T16:12:15.151Z,27.30
2018-09-20T16:14:44.458Z,27.20
2018-09-20T16:17:13.762Z,27.20
2018-09-20T16:19:43.066Z,27.20
2018-09-20T16:22:12.342Z,27.10
2018-09-20T16:24:41.650Z,27.00
2018-09-20T16:27:10.989Z,27.00
2018-09-20T16:30:07.876Z,26.90
2018-09-20T16:32:48.650Z,26.90
2018-09-20T16:35:36.272Z,26.70
2018-09-20T16:38:20.292Z,26.50
2018-09-20T16:40:50.504Z,26.40
2018-09-20T16:43:19.747Z,26.60
2018-09-20T16:45:49.044Z,26.50
2018-09-20T16:48:18.335Z,26.60
2018-09-20T16:50:47.658Z,26.50
2018-09-20T16:53:17.232Z,26.40
2018-09-20T16:55:46.603Z,26.40
2018-09-20T16:58:15.911Z,26.40
2018-09-20T17:00:45.323Z,26.20
2018-09-20T17:03:14.670Z,26.20
2018-09-20T17:05:44.549Z,26.20
2018-09-20T17:08:13.922Z,26.00
2018-09-20T17:10:43.322Z,26.00
2018-09-20T17:13:13.383Z,26.10
2018-09-20T17:15:42.680Z,25.90
2018-09-20T17:18:11.958Z,25.90
2018-09-20T17:20:41.339Z,25.80
2018-09-20T17:23:10.704Z,25.60
2018-09-20T17:25:40.025Z,25.60
2018-09-20T17:28:09.449Z,25.50
2018-09-20T17:30:38.833Z,25.40
2018-09-20T17:33:08.112Z,25.30
2018-09-20T17:35:37.798Z,25.40
2018-09-20T17:38:07.893Z,25.30
2018-09-20T17:40:38.453Z,25.20
2018-09-20T17:43:10.213Z,25.10
2018-09-20T17:45:39.531Z,25.10
2018-09-20T17:48:08.876Z,25.10
2018-09-20T17:50:38.213Z,25.10
2018-09-20T17:53:07.967Z,25.00
2018-09-20T17:55:38.167Z,24.90
2018-09-20T17:58:07.989Z,24.80
2018-09-20T18:00:37.427Z,24.60
2018-09-20T18:03:06.830Z,24.60
2018-09-20T18:05:36.216Z,24.50
2018-09-20T18:08:05.582Z,24.40
2018-09-20T18:10:34.902Z,24.30
2018-09-20T18:13:04.256Z,24.20
2018-09-20T18:15:33.556Z,24.30
2018-09-20T18:18:02.991Z,24.20
2018-09-20T18:20:32.223Z,24.20
2018-09-20T18:23:01.616Z,24.10
2018-09-20T18:25:30.905Z,24.10
2018-09-20T18:28:00.323Z,24.00
2018-09-20T18:30:29.789Z,23.90
2018-09-20T18:32:59.154Z,23.90
2018-09-20T18:35:28.537Z,23.80
2018-09-20T18:37:57.966Z,23.90
2018-09-20T18:40:27.421Z,23.80
2018-09-20T18:42:56.737Z,23.80
2018-09-20T18:45:26.079Z,23.80
2018-09-20T18:47:55.385Z,23.70
2018-09-20T18:50:24.721Z,23.70
2018-09-20T18:52:54.112Z,23.70
2018-09-20T18:55:23.495Z,23.60
2018-09-20T18:57:52.775Z,23.60
2018-09-20T19:00:22.085Z,23.50
2018-09-20T19:02:51.452Z,23.40
2018-09-20T19:05:20.755Z,23.40
2018-09-20T19:07:50.054Z,23.40
2018-09-20T19:10:19.350Z,23.40
2018-09-20T19:12:48.737Z,23.30
2018-09-20T19:15:18.137Z,23.20
2018-09-20T19:17:47.469Z,23.20
2018-09-20T19:20:16.773Z,23.10
2018-09-20T19:22:46.137Z,23.10
2018-09-20T19:25:18.700Z,22.90
2018-09-20T19:27:48.039Z,22.90
2018-09-20T19:30:17.418Z,22.90
2018-09-20T19:32:46.881Z,22.90
2018-09-20T19:35:16.097Z,22.90
2018-09-20T19:37:45.374Z,22.80
2018-09-20T19:40:14.753Z,22.70
2018-09-20T19:42:44.104Z,22.70
2018-09-20T19:45:13.445Z,22.50
2018-09-20T19:47:42.719Z,22.50
2018-09-20T19:50:12.017Z,22.50
2018-09-20T19:52:41.340Z,22.60
2018-09-20T19:55:10.714Z,22.60
2018-09-20T19:57:40.085Z,22.50
2018-09-20T20:00:09.443Z,22.40
2018-09-20T20:02:38.794Z,22.40
2018-09-20T20:05:08.140Z,22.30
2018-09-20T20:07:37.493Z,22.20
2018-09-20T20:10:06.849Z,22.20
2018-09-20T20:12:36.166Z,22.10
2018-09-20T20:15:05.537Z,22.20
2018-09-20T20:17:34.842Z,22.10
2018-09-20T20:20:04.286Z,22.10
2018-09-20T20:22:33.783Z,22.00
2018-09-20T20:25:03.234Z,21.80
2018-09-20T20:27:32.545Z,21.90
2018-09-20T20:30:02.486Z,21.90
2018-09-20T20:32:31.927Z,21.80
2018-09-20T20:35:01.258Z,21.70
2018-09-20T20:37:30.663Z,21.70
2018-09-20T20:40:00.089Z,21.80
2018-09-20T20:42:29.421Z,21.80
2018-09-20T20:44:58.821Z,21.80
2018-09-20T20:47:28.172Z,21.60
2018-09-20T20:49:57.561Z,21.70
2018-09-20T20:52:26.909Z,21.70
2018-09-20T20:54:56.212Z,21.60
2018-09-20T20:57:25.524Z,21.60
2018-09-20T20:59:54.830Z,21.30
2018-09-20T21:02:24.177Z,21.20
2018-09-20T21:04:53.445Z,21.20
2018-09-20T21:07:22.806Z,21.20
2018-09-20T21:09:52.129Z,21.20
2018-09-20T21:12:21.457Z,21.30
2018-09-20T21:14:50.896Z,21.30
2018-09-20T21:17:20.238Z,21.30
2018-09-20T21:19:49.494Z,21.30
2018-09-20T21:22:18.822Z,21.40
2018-09-20T21:24:48.124Z,21.30
2018-09-20T21:27:17.499Z,21.40
2018-09-20T21:29:46.820Z,21.30
2018-09-20T21:32:16.591Z,21.30
2018-09-20T21:34:45.897Z,21.10
2018-09-20T21:37:15.297Z,21.10
2018-09-20T21:39:44.646Z,21.00
2018-09-20T21:42:14.924Z,20.90
2018-09-20T21:44:44.340Z,20.80
2018-09-20T21:47:14.093Z,20.80
2018-09-20T21:49:43.430Z,20.80
2018-09-20T21:52:12.721Z,20.70
2018-09-20T21:54:42.049Z,20.60
2018-09-20T21:57:11.339Z,20.60
2018-09-20T21:59:40.673Z,20.70
2018-09-20T22:02:10.012Z,20.60
2018-09-20T22:04:39.338Z,20.60
2018-09-20T22:07:08.629Z,20.50
2018-09-20T22:09:37.938Z,20.60
2018-09-20T22:12:07.229Z,20.40
2018-09-20T22:14:36.557Z,20.50
2018-09-20T22:17:05.977Z,20.40
2018-09-20T22:19:35.322Z,20.40
2018-09-20T22:22:04.608Z,20.40
2018-09-20T22:24:33.929Z,20.30
2018-09-20T22:27:03.233Z,20.20
2018-09-20T22:29:32.547Z,20.20
2018-09-20T22:32:01.861Z,20.20
2018-09-20T22:34:31.242Z,20.10
2018-09-20T22:37:00.552Z,20.20
2018-09-20T22:39:29.929Z,20.20
2018-09-20T22:41:59.258Z,20.20
2018-09-20T22:44:28.574Z,20.20
2018-09-20T22:46:58.117Z,20.10
2018-09-20T22:49:27.446Z,20.10
2018-09-20T22:51:56.789Z,20.00
2018-09-20T22:54:26.134Z,20.00
2018-09-20T22:56:55.469Z,19.80
2018-09-20T22:59:24.861Z,19.80
2018-09-20T23:01:54.192Z,19.80
2018-09-20T23:04:23.510Z,19.80
2018-09-20T23:06:52.836Z,19.80
2018-09-20T23:09:22.137Z,19.70
2018-09-20T23:11:51.473Z,19.70
2018-09-20T23:14:20.829Z,19.70
2018-09-20T23:16:50.220Z,19.70
2018-09-20T23:19:19.529Z,19.70
2018-09-20T23:21:48.995Z,19.70
2018-09-20T23:24:18.275Z,19.70
2018-09-20T23:26:47.582Z,19.70
2018-09-20T23:29:16.874Z,19.80
2018-09-20T23:31:46.180Z,19.70
2018-09-20T23:34:15.469Z,19.60
2018-09-20T23:36:45.106Z,19.70
2018-09-20T23:39:14.573Z,19.70
2018-09-20T23:41:43.931Z,19.80
2018-09-20T23:44:13.213Z,19.70
2018-09-20T23:46:42.541Z,19.70
2018-09-20T23:49:11.848Z,19.70
2018-09-20T23:51:41.174Z,19.70
2018-09-20T23:54:10.465Z,19.70
2018-09-20T23:56:39.786Z,19.50
2018-09-20T23:59:09.075Z,19.50
